Time;durP1;ratioP1;P1;durP2;ratioP2;P2;SDS_P1;SDS_P2;PMS_P1;PMS_P2;Temp;Humidity;BMP_temperature;BMP_pressure;BME280_temperature;BME280_humidity;BME280_pressure;Samples;Min_cycle;Max_cycle;Signal;HPM_P1;HPM_P2
2021/10/21 00:02:14;;;;;;;17.00;15.37;;;16.20;99.90;;;;;;10199833;29;20204;-83
2021/10/21 00:07:17;;;;;;;18.20;16.70;;;16.10;99.90;;;;;;10189191;29;20240;-83
2021/10/21 00:12:19;;;;;;;15.90;14.80;;;16.10;99.90;;;;;;10219600;29;20236;-85
2021/10/21 00:17:22;;;;;;;15.77;14.67;;;16.00;99.90;;;;;;10201550;29;20594;-84
2021/10/21 00:22:24;;;;;;;15.30;13.80;;;16.00;99.90;;;;;;10202461;29;20549;-84
2021/10/21 00:27:26;;;;;;;13.93;12.93;;;16.00;99.90;;;;;;10218159;29;20293;-84
2021/10/21 00:32:30;;;;;;;13.57;12.57;;;16.00;99.90;;;;;;10199684;29;20210;-84
2021/10/21 00:37:32;;;;;;;13.20;12.10;;;16.00;99.90;;;;;;10178664;29;20240;-84
2021/10/21 00:42:34;;;;;;;12.90;12.03;;;16.00;99.90;;;;;;10178710;29;20212;-85
2021/10/21 00:47:38;;;;;;;14.80;13.30;;;16.00;99.90;;;;;;10178670;29;20248;-85
2021/10/21 00:52:40;;;;;;;14.87;13.63;;;16.00;99.90;;;;;;10178558;29;20213;-84
2021/10/21 00:57:42;;;;;;;14.40;13.40;;;16.00;99.90;;;;;;10178246;29;20233;-84
2021/10/21 01:02:46;;;;;;;16.70;15.50;;;16.00;99.90;;;;;;10163172;29;20247;-84
2021/10/21 01:07:49;;;;;;;15.03;14.03;;;15.90;99.90;;;;;;10217794;29;20249;-83
2021/10/21 01:12:51;;;;;;;17.03;14.60;;;15.80;99.90;;;;;;10218996;29;20662;-84
2021/10/21 01:17:56;;;;;;;15.63;14.43;;;15.80;99.90;;;;;;10201681;29;20788;-85
2021/10/21 01:23:00;;;;;;;16.67;15.37;;;15.80;99.90;;;;;;10217425;29;20227;-84
2021/10/21 01:28:05;;;;;;;14.83;13.83;;;15.80;99.90;;;;;;10217421;29;20217;-85
2021/10/21 01:33:07;;;;;;;15.90;14.80;;;15.80;99.90;;;;;;10218936;29;20248;-84
2021/10/21 01:38:11;;;;;;;16.47;15.13;;;15.80;99.90;;;;;;10216981;29;20233;-83
2021/10/21 01:43:14;;;;;;;16.50;15.30;;;15.70;99.90;;;;;;10204067;29;20300;-84
2021/10/21 01:48:16;;;;;;;16.43;15.33;;;15.60;99.90;;;;;;10217008;29;20225;-83
2021/10/21 01:53:19;;;;;;;16.23;14.83;;;15.60;99.90;;;;;;10214037;29;20643;-84
2021/10/21 01:58:21;;;;;;;15.67;14.67;;;15.60;99.90;;;;;;10216370;29;20720;-85
2021/10/21 02:03:24;;;;;;;16.57;15.37;;;15.50;99.90;;;;;;10210693;29;20650;-84
2021/10/21 02:08:27;;;;;;;14.70;13.70;;;15.50;99.90;;;;;;10214554;29;20233;-83
2021/10/21 02:13:29;;;;;;;15.40;14.17;;;15.40;99.90;;;;;;10199271;29;20208;-85
2021/10/21 02:18:31;;;;;;;14.60;13.40;;;15.40;99.90;;;;;;10214149;29;20240;-85
2021/10/21 02:23:35;;;;;;;13.00;12.20;;;15.40;99.90;;;;;;10211801;29;20221;-84
2021/10/21 02:28:37;;;;;;;13.83;12.93;;;15.40;99.90;;;;;;10188410;29;20221;-84
2021/10/21 02:33:40;;;;;;;12.30;11.60;;;15.40;99.90;;;;;;10185712;29;20201;-85
2021/10/21 02:38:43;;;;;;;12.57;11.67;;;15.40;99.90;;;;;;10198302;29;20233;-84
2021/10/21 02:43:45;;;;;;;11.07;10.37;;;15.50;99.90;;;;;;10213637;29;20205;-84
2021/10/21 02:48:47;;;;;;;11.07;10.37;;;15.50;99.90;;;;;;10215371;29;20226;-84
2021/10/21 02:53:51;;;;;;;10.63;10.00;;;15.50;99.90;;;;;;10214298;29;20228;-84
2021/10/21 02:58:53;;;;;;;12.07;10.97;;;15.50;99.90;;;;;;10215449;29;20697;-85
2021/10/21 03:03:55;;;;;;;11.10;10.20;;;15.50;99.90;;;;;;10217297;29;20197;-84
2021/10/21 03:08:58;;;;;;;10.60;9.70;;;15.50;99.90;;;;;;10215275;29;20245;-84
2021/10/21 03:14:00;;;;;;;10.97;9.97;;;15.60;99.90;;;;;;10213395;29;20317;-83
2021/10/21 03:19:03;;;;;;;10.83;10.10;;;15.60;99.90;;;;;;10196807;29;20225;-84
2021/10/21 03:24:07;;;;;;;9.60;9.00;;;15.60;99.90;;;;;;10200073;29;20209;-84
2021/10/21 03:29:09;;;;;;;9.10;8.60;;;15.70;99.90;;;;;;10217003;29;20213;-84
2021/10/21 03:34:11;;;;;;;8.80;8.30;;;15.70;99.90;;;;;;10198123;29;20209;-85
2021/10/21 03:39:14;;;;;;;9.60;8.90;;;15.70;99.90;;;;;;10215386;29;20745;-84
2021/10/21 03:44:16;;;;;;;7.20;6.70;;;15.70;99.90;;;;;;10214749;29;20206;-85
2021/10/21 03:49:18;;;;;;;5.67;5.37;;;15.70;99.90;;;;;;10213651;29;20722;-84
2021/10/21 03:54:22;;;;;;;3.97;3.77;;;15.70;99.90;;;;;;10199632;29;20246;-84
2021/10/21 03:59:24;;;;;;;4.73;4.53;;;15.70;99.90;;;;;;10211524;29;20653;-84
2021/10/21 04:04:26;;;;;;;4.67;4.27;;;15.60;99.90;;;;;;10174219;29;20214;-84
2021/10/21 04:09:30;;;;;;;3.80;3.50;;;15.60;99.90;;;;;;10175922;29;20229;-83
2021/10/21 04:14:32;;;;;;;2.40;2.20;;;15.70;99.90;;;;;;10177617;29;20285;-84
2021/10/21 04:19:34;;;;;;;2.93;2.83;;;15.60;99.90;;;;;;10182401;29;20232;-84
2021/10/21 04:24:38;;;;;;;2.57;2.47;;;15.60;99.90;;;;;;10182456;29;20202;-84
2021/10/21 04:29:40;;;;;;;4.80;2.40;;;15.60;99.90;;;;;;10179726;29;20309;-83
2021/10/21 04:34:42;;;;;;;2.40;2.30;;;15.50;99.90;;;;;;10187210;29;20306;-84
2021/10/21 04:39:46;;;;;;;7.50;1.80;;;15.40;99.90;;;;;;10178842;29;20233;-84
2021/10/21 04:44:49;;;;;;;2.93;1.83;;;15.40;99.90;;;;;;10170078;29;20285;-84
2021/10/21 05:11:03;;;;;;;2.87;1.43;;;15.00;99.90;;;;;;10149563;29;20651;-87
2021/10/21 05:16:20;;;;;;;4.13;2.13;;;15.00;99.90;;;;;;10119356;29;20202;-86
2021/10/21 05:21:44;;;;;;;4.13;2.20;;;15.00;99.90;;;;;;10125567;29;20761;-86
2021/10/21 07:22:02;;;;;;;5.70;2.33;;;14.50;99.90;;;;;;9828449;30;20285;-87
2021/10/21 08:35:29;;;;;;;1.60;1.43;;;15.20;98.70;;;;;;9803145;30;20219;-88
2021/10/21 08:40:33;;;;;;;4.00;1.90;;;15.30;99.20;;;;;;9950654;29;20272;-87
2021/10/21 08:45:36;;;;;;;2.80;1.53;;;15.30;98.20;;;;;;10136868;29;20238;-87
2021/10/21 08:50:41;;;;;;;2.37;1.47;;;15.30;99.70;;;;;;10137378;29;20318;-87
2021/10/21 09:47:34;;;;;;;1.43;1.33;;;14.50;99.90;;;;;;10095813;29;20215;-87
2021/10/21 10:15:18;;;;;;;1.60;1.50;;;14.50;99.40;;;;;;10131756;29;20204;-87
2021/10/21 11:25:34;;;;;;;1.63;1.50;;;14.70;99.50;;;;;;10133519;29;20206;-87
2021/10/21 11:31:35;;;;;;;1.87;1.77;;;14.70;97.80;;;;;;10126522;29;20221;-86
2021/10/21 11:49:05;;;;;;;1.90;1.60;;;14.80;96.20;;;;;;10050021;29;20215;-87
2021/10/21 13:27:59;;;;;;;2.27;1.97;;;15.60;95.40;;;;;;10215514;29;20205;-85
2021/10/21 13:33:36;;;;;;;2.57;1.20;;;15.50;93.60;;;;;;10196000;29;20693;-86
2021/10/21 13:38:39;;;;;;;2.20;2.03;;;15.50;93.50;;;;;;10158581;29;20217;-86
2021/10/21 13:43:44;;;;;;;2.03;1.90;;;15.50;97.50;;;;;;10158065;29;20265;-86
2021/10/21 13:48:46;;;;;;;4.83;1.63;;;15.50;96.90;;;;;;10191927;29;20227;-86
2021/10/21 13:53:48;;;;;;;1.87;1.77;;;15.50;95.70;;;;;;10184903;29;20200;-86
2021/10/21 13:58:52;;;;;;;1.70;1.60;;;15.60;93.40;;;;;;10210791;29;20221;-86
2021/10/21 14:03:55;;;;;;;2.17;1.83;;;15.70;93.60;;;;;;10203999;29;20272;-85
2021/10/21 14:09:02;;;;;;;2.50;1.50;;;15.70;91.40;;;;;;10173294;29;20214;-85
2021/10/21 14:14:07;;;;;;;2.20;2.00;;;15.70;94.20;;;;;;10173655;29;20202;-86
2021/10/21 14:19:09;;;;;;;1.97;1.80;;;15.70;93.20;;;;;;10193191;29;20682;-86
2021/10/21 14:24:12;;;;;;;2.23;2.03;;;15.70;91.00;;;;;;10156192;29;20213;-85
2021/10/21 14:29:15;;;;;;;2.77;2.00;;;15.70;93.90;;;;;;10197170;29;20276;-86
2021/10/21 14:34:17;;;;;;;1.97;1.30;;;15.60;98.60;;;;;;10187547;29;20212;-86
2021/10/21 14:39:22;;;;;;;2.30;1.80;;;15.60;99.90;;;;;;10210909;29;20219;-86
2021/10/21 14:44:26;;;;;;;2.17;1.33;;;15.60;95.50;;;;;;10154283;29;20214;-86
2021/10/21 14:49:29;;;;;;;2.30;1.83;;;15.50;93.10;;;;;;10172156;29;20277;-86
2021/10/21 14:54:32;;;;;;;1.90;1.80;;;15.50;96.60;;;;;;10161003;29;20252;-86
2021/10/21 14:59:39;;;;;;;2.30;1.73;;;15.60;97.00;;;;;;10184491;29;20231;-86
2021/10/21 15:04:41;;;;;;;4.00;1.73;;;15.60;95.30;;;;;;10201299;29;20764;-86
2021/10/21 15:10:07;;;;;;;4.07;2.37;;;15.70;96.40;;;;;;10208450;29;20221;-85
2021/10/21 15:25:47;;;;;;;3.00;1.93;;;15.80;95.70;;;;;;10154542;29;20659;-86
2021/10/21 15:30:51;;;;;;;2.87;1.70;;;15.80;99.70;;;;;;10184827;29;21016;-86
2021/10/21 15:35:54;;;;;;;1.97;1.77;;;15.80;92.60;;;;;;10176259;29;20288;-85
2021/10/21 15:40:57;;;;;;;4.40;1.97;;;15.80;93.00;;;;;;10191422;29;20682;-86
2021/10/21 15:46:05;;;;;;;3.77;3.00;;;15.80;94.60;;;;;;10205806;29;20200;-86
2021/10/21 15:51:24;;;;;;;4.87;1.87;;;15.80;93.10;;;;;;10209065;29;20293;-86
2021/10/21 16:12:28;;;;;;;2.60;1.30;;;15.60;91.40;;;;;;10175816;29;20296;-88
2021/10/21 16:17:33;;;;;;;4.50;2.60;;;15.50;94.20;;;;;;10174999;29;20222;-86
2021/10/21 16:22:45;;;;;;;3.70;1.90;;;15.40;93.60;;;;;;10159717;29;20202;-86
2021/10/21 16:27:48;;;;;;;2.27;1.73;;;15.30;92.30;;;;;;10161306;29;20222;-87
2021/10/21 16:32:52;;;;;;;3.30;1.27;;;15.30;93.70;;;;;;10161167;29;20218;-87
2021/10/21 16:37:54;;;;;;;2.03;1.70;;;15.20;91.30;;;;;;10177551;29;20268;-87
2021/10/21 16:42:56;;;;;;;5.50;2.63;;;15.30;94.00;;;;;;10162503;29;20261;-86
2021/10/21 16:48:00;;;;;;;2.00;1.80;;;15.20;97.00;;;;;;10163206;29;20229;-86
2021/10/21 16:53:03;;;;;;;2.77;1.90;;;15.20;94.40;;;;;;10162742;29;20220;-86
2021/10/21 16:58:05;;;;;;;7.07;2.20;;;15.10;95.00;;;;;;10163799;29;20281;-86
2021/10/21 17:03:12;;;;;;;3.70;1.63;;;15.00;95.60;;;;;;10190240;29;20743;-88
2021/10/21 17:08:14;;;;;;;3.63;2.00;;;15.00;96.30;;;;;;10214588;29;20221;-86
2021/10/21 17:13:16;;;;;;;5.13;3.03;;;14.90;95.30;;;;;;10213233;29;20205;-87
2021/10/21 17:18:21;;;;;;;4.37;2.90;;;14.90;97.90;;;;;;10218227;29;20233;-86
2021/10/21 17:23:24;;;;;;;3.10;2.20;;;14.90;94.80;;;;;;10218909;29;20216;-86
2021/10/21 17:28:29;;;;;;;3.10;2.37;;;14.90;96.60;;;;;;10231200;29;20209;-87
2021/10/21 17:33:32;;;;;;;4.83;2.53;;;15.00;98.80;;;;;;10216687;29;20213;-85
2021/10/21 17:38:34;;;;;;;2.90;2.57;;;15.00;97.00;;;;;;10199477;29;20229;-86
2021/10/21 17:43:37;;;;;;;4.53;2.20;;;15.00;94.70;;;;;;10200460;29;20643;-86
2021/10/21 17:48:41;;;;;;;4.90;2.40;;;15.00;95.50;;;;;;10219184;29;20217;-86
2021/10/21 17:53:43;;;;;;;5.10;2.70;;;15.00;96.50;;;;;;10219160;29;20197;-84
2021/10/21 17:58:45;;;;;;;7.73;3.07;;;15.10;98.40;;;;;;10224166;29;20229;-88
2021/10/21 18:03:49;;;;;;;5.07;2.93;;;15.10;96.20;;;;;;10233728;29;20726;-84
2021/10/21 18:08:52;;;;;;;4.40;4.00;;;15.10;97.10;;;;;;10219085;29;20228;-85
2021/10/21 18:14:23;;;;;;;4.40;3.20;;;15.10;98.10;;;;;;10218858;29;20240;-86
2021/10/21 18:19:29;;;;;;;2.90;1.67;;;15.10;99.90;;;;;;10193180;29;20281;-86
2021/10/21 18:24:34;;;;;;;3.07;2.77;;;15.00;99.90;;;;;;10159143;29;20210;-86
2021/10/21 18:29:36;;;;;;;5.30;2.90;;;15.00;99.90;;;;;;10172012;29;20282;-86
2021/10/21 18:34:43;;;;;;;7.80;3.50;;;14.90;99.90;;;;;;10171808;29;20307;-85
2021/10/21 18:39:49;;;;;;;3.00;2.63;;;14.80;99.90;;;;;;10199027;29;20314;-86
2021/10/21 18:44:52;;;;;;;3.13;2.80;;;14.80;99.90;;;;;;10214152;29;20216;-86
2021/10/21 18:49:56;;;;;;;8.67;3.13;;;14.80;99.90;;;;;;10216577;29;20231;-86
2021/10/21 18:54:58;;;;;;;3.87;3.47;;;14.60;99.90;;;;;;10201897;29;20651;-85
2021/10/21 19:00:01;;;;;;;5.23;4.07;;;14.50;99.90;;;;;;10197940;29;20225;-87
2021/10/21 19:05:07;;;;;;;5.70;4.10;;;14.40;99.90;;;;;;10181068;29;20238;-86
2021/10/21 19:10:11;;;;;;;8.10;4.60;;;14.20;99.90;;;;;;10158647;29;20238;-86
2021/10/21 19:15:14;;;;;;;4.80;4.40;;;14.00;99.90;;;;;;10175287;29;20618;-87
2021/10/21 19:20:18;;;;;;;6.97;6.37;;;13.70;99.90;;;;;;10173423;29;20277;-86
2021/10/21 19:25:21;;;;;;;6.53;5.90;;;13.40;99.90;;;;;;10155198;29;20219;-86
2021/10/21 19:30:26;;;;;;;9.37;6.10;;;13.20;99.90;;;;;;10154356;29;20270;-85
2021/10/21 19:35:30;;;;;;;11.17;6.00;;;13.10;99.90;;;;;;10178479;29;20205;-86
2021/10/21 19:40:32;;;;;;;7.23;4.83;;;12.90;99.90;;;;;;10196368;29;20231;-86
2021/10/21 19:45:35;;;;;;;7.00;5.37;;;12.80;99.90;;;;;;10217040;29;20186;-86
2021/10/21 19:50:38;;;;;;;6.30;4.30;;;12.70;99.90;;;;;;10203477;29;20248;-86
2021/10/21 19:55:41;;;;;;;7.47;5.23;;;12.80;99.90;;;;;;10203362;29;20277;-86
2021/10/21 20:00:43;;;;;;;5.13;4.20;;;12.80;99.90;;;;;;10187513;29;20284;-86
2021/10/21 20:05:47;;;;;;;6.30;4.43;;;12.90;99.90;;;;;;10202869;29;20213;-87
2021/10/21 20:11:01;;;;;;;7.00;3.90;;;12.90;99.90;;;;;;10218829;29;20296;-86
2021/10/21 20:16:03;;;;;;;4.40;3.80;;;12.90;99.90;;;;;;10218231;29;20305;-86
2021/10/21 20:21:07;;;;;;;4.87;4.40;;;12.90;99.90;;;;;;10218322;29;20313;-86
2021/10/21 20:26:10;;;;;;;6.20;3.53;;;12.80;99.90;;;;;;10218926;29;20276;-85
2021/10/21 20:31:12;;;;;;;6.83;4.60;;;12.80;99.90;;;;;;10201417;29;20229;-85
2021/10/21 20:36:16;;;;;;;5.87;3.93;;;12.80;99.90;;;;;;10217289;29;20221;-85
2021/10/21 20:41:18;;;;;;;6.97;4.40;;;12.90;99.90;;;;;;10200649;29;20232;-86
2021/10/21 20:46:20;;;;;;;5.60;4.17;;;12.80;99.90;;;;;;10218401;29;20726;-86
2021/10/21 20:51:24;;;;;;;5.37;3.73;;;12.90;99.90;;;;;;10218737;29;20229;-86
2021/10/21 20:56:26;;;;;;;4.97;4.20;;;12.90;99.90;;;;;;10219371;29;20541;-87
2021/10/21 21:01:29;;;;;;;4.60;4.30;;;12.80;99.90;;;;;;10202795;29;20221;-86
2021/10/21 21:06:37;;;;;;;5.27;4.70;;;12.80;99.90;;;;;;10174265;29;20626;-87
2021/10/21 21:11:42;;;;;;;6.43;5.83;;;12.80;99.90;;;;;;10162349;29;20202;-86
2021/10/21 21:16:47;;;;;;;5.63;5.20;;;12.80;99.90;;;;;;10160507;29;20450;-86
2021/10/21 21:21:57;;;;;;;4.90;4.50;;;12.80;99.90;;;;;;10176851;29;20214;-86
2021/10/21 21:27:06;;;;;;;4.20;3.90;;;12.80;99.90;;;;;;10159602;29;20299;-86
2021/10/21 21:32:08;;;;;;;3.50;3.30;;;12.80;99.90;;;;;;10163426;29;20240;-87
2021/10/21 21:37:15;;;;;;;3.60;3.40;;;12.80;99.90;;;;;;10197373;29;20236;-87
2021/10/21 21:42:18;;;;;;;3.10;3.00;;;12.70;99.90;;;;;;10185446;29;20221;-88
2021/10/21 21:47:20;;;;;;;3.10;3.00;;;12.50;99.90;;;;;;10174014;29;20289;-88
2021/10/21 21:52:24;;;;;;;3.13;2.93;;;12.10;99.90;;;;;;10158330;29;20373;-87
2021/10/21 21:57:27;;;;;;;2.57;2.47;;;11.90;99.90;;;;;;10158048;29;20754;-86
2021/10/21 22:02:30;;;;;;;2.83;2.70;;;11.80;99.90;;;;;;10158798;29;20269;-88
2021/10/21 22:07:34;;;;;;;2.80;2.70;;;11.70;99.90;;;;;;10164010;29;20249;-88
2021/10/21 22:12:36;;;;;;;2.70;2.50;;;11.70;99.90;;;;;;10157259;29;20254;-87
2021/10/21 22:17:39;;;;;;;3.53;2.80;;;11.70;99.90;;;;;;10158170;29;20225;-87
2021/10/21 22:22:43;;;;;;;3.30;3.10;;;11.70;99.90;;;;;;10157765;29;20257;-87
2021/10/21 22:27:45;;;;;;;4.50;2.63;;;11.70;99.90;;;;;;10192290;29;20602;-87
2021/10/21 22:32:48;;;;;;;3.03;2.83;;;11.70;99.90;;;;;;10212075;29;20216;-87
2021/10/21 22:37:52;;;;;;;3.20;2.83;;;11.80;99.90;;;;;;10195324;29;20225;-87
2021/10/21 22:42:55;;;;;;;2.33;2.23;;;11.80;99.90;;;;;;10211048;29;20229;-86
2021/10/21 22:47:58;;;;;;;2.93;2.70;;;11.80;99.90;;;;;;10242368;23;20255;-83
2021/10/21 22:53:02;;;;;;;3.10;2.90;;;11.70;99.90;;;;;;10226828;29;20205;-83
2021/10/21 22:58:04;;;;;;;2.90;2.70;;;11.70;99.90;;;;;;10245126;29;20320;-83
2021/10/21 23:03:09;;;;;;;3.67;3.00;;;11.80;99.90;;;;;;10243269;29;20267;-83
2021/10/21 23:08:13;;;;;;;2.43;2.33;;;11.80;99.90;;;;;;10246849;29;20225;-83
2021/10/21 23:13:18;;;;;;;2.70;2.60;;;11.80;99.90;;;;;;10224062;29;20196;-83
2021/10/21 23:18:20;;;;;;;2.63;2.47;;;11.80;99.90;;;;;;10225455;28;20612;-82
2021/10/21 23:23:24;;;;;;;3.47;3.00;;;11.80;99.90;;;;;;10235087;29;20251;-83
2021/10/21 23:28:26;;;;;;;3.10;2.90;;;11.80;99.90;;;;;;10253941;28;20247;-83
2021/10/21 23:33:28;;;;;;;3.70;3.00;;;11.80;99.90;;;;;;10246590;29;20709;-83
2021/10/21 23:38:32;;;;;;;3.10;2.77;;;11.90;99.90;;;;;;10246540;28;20276;-82
2021/10/21 23:43:34;;;;;;;2.60;2.40;;;11.90;99.90;;;;;;10233291;29;20220;-83
2021/10/21 23:48:36;;;;;;;3.63;2.17;;;11.90;99.90;;;;;;10250495;29;20716;-83
2021/10/21 23:53:41;;;;;;;2.50;2.30;;;11.90;99.90;;;;;;10240701;28;20211;-83
2021/10/21 23:58:44;;;;;;;2.50;2.30;;;11.90;99.90;;;;;;10251862;29;20287;-83
